Airfield :
LOGIN :

Register | Disclaimer

   EN    FR    IT 

 










Legend :    VFR   Marginal VFR   IFR   Intensive IFR   Very Intensive IFR
Visi :
Ceiling :
>= 8 km
>= 3000ft
5 to 8 km
1000 to 3000 ft
1500m to 5 km
500 to 1000 ft
800 to 1500m
200 to 500 ft
< 800m
< 200 ft
Symbols :   Thunderstorms  Fog  Heavy snow  Heavy precipitations  Wind > 20 kt
SIGMETs :     Misc.  Thunderstorms  Icing  Turbulence  Mountain Waves  Volcanic Ashes






- Airport Elevation : 919 ft
- IATA code : IFO


UKLI - Ivano Frankivs'k

CURRENT METAR :
  • 201630Z 12007MPS 9999 BKN016 11/09 Q1020 R10/290065 NOSIG

EXPIRED METARs :
  • 201600Z 12006MPS 080V150 9999 BKN016 11/10 Q1020 R10/290065 NOSIG
  • 201530Z 12007MPS 9999 BKN016 11/09 Q1020 R10/290065 NOSIG
  • 201500Z 12006MPS 9999 BKN016 11/10 Q1020 R10/290065 NOSIG
  • 201430Z 12006MPS 9999 BKN016 11/10 Q1020 R10/290065 NOSIG
  • 201400Z 11007MPS 9999 BKN014CB BKN024 12/10 Q1020 R10/290065 NOSIG

TAF TAF UKLI
Valid from the 20 at 15:00 until the 21 at 00:00 UTC


201402Z 2015/2024 11005MPS 6000 BKN015
TEMPO 2015/2021 13007G12MPS 2100 -SHRA BKN007 BKN010CB



MET'MAP, your aeronautical weather chart ! - Copyright ORBIFLY December 2007 - Disclaimer

ORBIFLY MET'MAP TEAM :

Programming & Development : Alexandra Zaïnal
Concept & Development : Baudouin d'Aumeries
Co-Development & Prog : Marc-Olivier Méhu
Technical & hardware support : Manuel Goepfert

Contact : metmap@orbifly.com




SOURCES & CREDITS :

   NOAA